Time;durP1;ratioP1;P1;durP2;ratioP2;P2;SDS_P1;SDS_P2;PMS_P1;PMS_P2;Temp;Humidity;BMP_temperature;BMP_pressure;BME280_temperature;BME280_humidity;BME280_pressure;Samples;Min_cycle;Max_cycle;Signal;HPM_P1;HPM_P2
2023/03/19 00:01:07;;;;;;;;;;;;;;;3.73;37.39;101826.56;5116483;28;19919;-68
2023/03/19 00:03:33;;;;;;;;;;;;;;;3.72;38.08;101820.47;5116533;28;20390;-69
2023/03/19 00:05:59;;;;;;;;;;;;;;;3.75;38.00;101819.44;5116447;28;19911;-68
2023/03/19 00:08:24;;;;;;;;;;;;;;;3.77;38.03;101820.22;5116287;28;20354;-70
2023/03/19 00:10:50;;;;;;;;;;;;;;;3.72;38.33;101819.63;5116407;28;19918;-70
2023/03/19 00:13:15;;;;;;;;;;;;;;;3.69;38.96;101814.53;5116189;28;20428;-69
2023/03/19 00:15:41;;;;;;;;;;;;;;;3.68;38.12;101811.06;5098024;28;19912;-70
2023/03/19 00:18:07;;;;;;;;;;;;;;;3.70;38.64;101810.97;5115863;28;19912;-69
2023/03/19 00:20:32;;;;;;;;;;;;;;;3.68;38.54;101815.47;5115909;28;19955;-69
2023/03/19 00:22:57;;;;;;;;;;;;;;;3.66;38.02;101814.72;5115919;28;19967;-69
2023/03/19 00:25:23;;;;;;;;;;;;;;;3.70;38.33;101805.69;5097581;28;19918;-68
2023/03/19 00:27:48;;;;;;;;;;;;;;;3.71;37.99;101810.88;5115813;28;19915;-70
2023/03/19 00:30:14;;;;;;;;;;;;;;;3.73;38.61;101808.13;5116092;28;19947;-69
2023/03/19 00:32:41;;;;;;;;;;;;;;;3.68;38.56;101808.41;5115437;28;19926;-70
2023/03/19 00:35:07;;;;;;;;;;;;;;;3.67;39.07;101803.25;5115549;28;20006;-70
2023/03/19 00:37:33;;;;;;;;;;;;;;;3.67;38.79;101796.19;5115601;28;20419;-69
2023/03/19 00:39:58;;;;;;;;;;;;;;;3.69;39.22;101799.56;5115690;28;20007;-70
2023/03/19 00:42:23;;;;;;;;;;;;;;;3.69;39.43;101789.03;5116093;28;20006;-69
2023/03/19 00:44:49;;;;;;;;;;;;;;;3.73;39.43;101794.97;5115701;28;19912;-69
2023/03/19 00:47:14;;;;;;;;;;;;;;;3.76;38.88;101799.19;5115659;28;19915;-70
2023/03/19 00:49:39;;;;;;;;;;;;;;;3.74;38.91;101792.22;5115564;28;19911;-68
2023/03/19 00:52:05;;;;;;;;;;;;;;;3.69;39.35;101796.09;5115700;28;19911;-69
2023/03/19 00:54:31;;;;;;;;;;;;;;;3.68;39.43;101787.34;5097380;28;19912;-69
2023/03/19 00:56:56;;;;;;;;;;;;;;;3.66;39.39;101783.09;5115492;28;19916;-69
2023/03/19 00:59:24;;;;;;;;;;;;;;;3.68;39.61;101781.22;5115284;28;20275;-69
2023/03/19 01:01:50;;;;;;;;;;;;;;;3.68;39.33;101791.75;5115926;28;19911;-68
2023/03/19 01:04:22;;;;;;;;;;;;;;;3.68;39.44;101783.88;5115378;28;19920;-68
2023/03/19 01:06:47;;;;;;;;;;;;;;;3.69;38.70;101783.78;5115322;28;19919;-68
2023/03/19 01:09:12;;;;;;;;;;;;;;;3.71;39.32;101770.50;5117724;28;19918;-69
2023/03/19 01:11:38;;;;;;;;;;;;;;;3.70;39.44;101777.56;5117681;28;19965;-69
2023/03/19 01:14:03;;;;;;;;;;;;;;;3.66;40.17;101778.69;5118950;28;20348;-69
2023/03/19 01:16:28;;;;;;;;;;;;;;;3.62;40.48;101766.66;5118613;28;19971;-67
2023/03/19 01:18:54;;;;;;;;;;;;;;;3.65;39.30;101771.72;5118417;28;20398;-68
2023/03/19 01:21:20;;;;;;;;;;;;;;;3.69;39.53;101777.66;5115621;28;19919;-68
2023/03/19 01:23:46;;;;;;;;;;;;;;;3.69;40.43;101769.75;5114866;28;19912;-68
2023/03/19 01:26:11;;;;;;;;;;;;;;;3.67;39.93;101769.00;5115118;28;20286;-69
2023/03/19 01:28:37;;;;;;;;;;;;;;;3.69;39.91;101764.47;5115272;28;20244;-69
2023/03/19 01:31:08;;;;;;;;;;;;;;;3.70;39.48;101760.91;5116693;28;19912;-68
2023/03/19 01:33:33;;;;;;;;;;;;;;;3.71;40.26;101765.22;5123910;27;20336;-69
2023/03/19 01:36:02;;;;;;;;;;;;;;;3.71;40.80;101752.91;5134975;27;19937;-69
2023/03/19 01:38:27;;;;;;;;;;;;;;;3.72;40.61;101764.28;5135288;27;19911;-69
2023/03/19 01:40:53;;;;;;;;;;;;;;;3.75;41.03;101761.47;5135313;27;20005;-68
2023/03/19 01:43:20;;;;;;;;;;;;;;;3.76;41.58;101760.56;5134970;27;20006;-67
2023/03/19 01:45:46;;;;;;;;;;;;;;;3.76;41.51;101743.88;5135124;27;19919;-68
2023/03/19 01:48:17;;;;;;;;;;;;;;;3.78;41.85;101755.19;5134918;27;19911;-69
2023/03/19 01:50:44;;;;;;;;;;;;;;;3.76;42.51;101736.84;5134745;27;19918;-69
2023/03/19 01:53:11;;;;;;;;;;;;;;;3.78;41.95;101745.50;5135057;27;19961;-68
2023/03/19 01:55:37;;;;;;;;;;;;;;;3.76;42.12;101736.84;5135150;27;19912;-69
2023/03/19 01:58:03;;;;;;;;;;;;;;;3.72;41.06;101735.31;5134761;27;19912;-69
2023/03/19 02:00:29;;;;;;;;;;;;;;;3.70;40.82;101721.38;5134463;27;19918;-68
2023/03/19 02:02:58;;;;;;;;;;;;;;;3.72;40.40;101728.25;5135156;27;19919;-69
2023/03/19 02:05:25;;;;;;;;;;;;;;;3.75;40.97;101719.31;5135561;27;19923;-68
2023/03/19 02:07:51;;;;;;;;;;;;;;;3.72;40.28;101724.78;5115711;27;19926;-69
2023/03/19 02:10:18;;;;;;;;;;;;;;;3.71;40.47;101728.34;5134460;27;20262;-69
2023/03/19 02:12:43;;;;;;;;;;;;;;;3.72;41.11;101725.63;5134351;27;20010;-70
2023/03/19 02:15:09;;;;;;;;;;;;;;;3.72;40.80;101724.78;5116127;27;20354;-69
2023/03/19 02:17:54;;;;;;;;;;;;;;;3.69;40.65;101723.19;5119446;27;19911;-70
2023/03/19 02:20:19;;;;;;;;;;;;;;;3.67;40.74;101722.44;5134406;27;20273;-68
2023/03/19 02:22:51;;;;;;;;;;;;;;;3.65;40.29;101724.31;5134505;27;19911;-69
2023/03/19 02:25:24;;;;;;;;;;;;;;;3.63;41.19;101709.53;5135505;27;19918;-68
2023/03/19 02:27:50;;;;;;;;;;;;;;;3.62;40.53;101718.38;5134330;27;19959;-69
2023/03/19 02:30:24;;;;;;;;;;;;;;;3.62;41.09;101707.84;5134105;27;19922;-69
2023/03/19 02:32:50;;;;;;;;;;;;;;;3.62;41.11;101702.59;5134460;27;20289;-68
2023/03/19 02:35:15;;;;;;;;;;;;;;;3.62;42.06;101687.63;5133937;27;20010;-68
2023/03/19 02:37:41;;;;;;;;;;;;;;;3.61;41.18;101687.72;5134100;27;19958;-68
2023/03/19 02:40:10;;;;;;;;;;;;;;;3.66;41.95;101683.00;5134146;27;19963;-69
2023/03/19 02:42:35;;;;;;;;;;;;;;;3.67;42.15;101685.53;5133939;27;19915;-69
2023/03/19 02:45:00;;;;;;;;;;;;;;;3.69;41.46;101688.09;5134104;27;19956;-68
2023/03/19 02:47:26;;;;;;;;;;;;;;;3.70;41.38;101681.88;5133942;27;19916;-67
2023/03/19 02:49:51;;;;;;;;;;;;;;;3.68;41.94;101683.75;5133750;27;20365;-68
2023/03/19 02:52:17;;;;;;;;;;;;;;;3.64;41.40;101677.84;5133765;27;19918;-69
2023/03/19 02:54:42;;;;;;;;;;;;;;;3.59;40.81;101674.66;5133642;27;20003;-68
2023/03/19 02:57:08;;;;;;;;;;;;;;;3.55;41.67;101674.94;5133606;27;19911;-68
2023/03/19 02:59:33;;;;;;;;;;;;;;;3.55;42.25;101669.66;5133345;27;19911;-69
2023/03/19 03:01:58;;;;;;;;;;;;;;;3.56;42.04;101677.47;5133598;27;19965;-68
2023/03/19 03:04:25;;;;;;;;;;;;;;;3.53;42.21;101687.34;5133509;27;19972;-69
2023/03/19 03:06:50;;;;;;;;;;;;;;;3.25;42.84;101641.66;5133496;27;20267;-68
2023/03/19 03:09:16;;;;;;;;;;;;;;;3.53;42.74;101680.31;5133742;27;19918;-68
2023/03/19 03:11:41;;;;;;;;;;;;;;;3.52;42.88;101685.66;5133620;27;19915;-68
2023/03/19 03:14:07;;;;;;;;;;;;;;;3.48;42.76;101689.44;5133369;27;19957;-69
2023/03/19 03:16:32;;;;;;;;;;;;;;;3.47;42.85;101682.44;5133614;27;19954;-68
2023/03/19 03:18:58;;;;;;;;;;;;;;;3.43;42.79;101687.91;5133323;27;20312;-68
2023/03/19 03:21:24;;;;;;;;;;;;;;;3.45;43.42;101685.16;5133413;27;19919;-67
2023/03/19 03:23:50;;;;;;;;;;;;;;;3.42;42.43;101680.94;5133587;27;20013;-68
2023/03/19 03:26:16;;;;;;;;;;;;;;;3.40;43.38;101677.56;5133165;28;20323;-68
2023/03/19 03:28:42;;;;;;;;;;;;;;;3.35;43.26;101669.09;5133204;28;19911;-68
2023/03/19 03:31:08;;;;;;;;;;;;;;;3.36;43.84;101670.78;5133164;28;19919;-68
2023/03/19 03:33:33;;;;;;;;;;;;;;;3.37;43.99;101667.22;5133289;28;19922;-68
2023/03/19 03:35:59;;;;;;;;;;;;;;;3.40;43.71;101667.03;5133271;28;19916;-69
2023/03/19 03:38:24;;;;;;;;;;;;;;;3.39;44.26;101669.75;5133193;28;19915;-69
2023/03/19 03:40:51;;;;;;;;;;;;;;;3.38;43.90;101670.69;5132995;28;19961;-69
2023/03/19 03:43:16;;;;;;;;;;;;;;;3.41;43.98;101668.72;5133015;28;20374;-68
2023/03/19 03:45:43;;;;;;;;;;;;;;;3.42;44.33;101674.81;5133051;28;19918;-68
2023/03/19 03:48:08;;;;;;;;;;;;;;;3.39;44.45;101670.59;5133211;28;20296;-68
2023/03/19 03:50:34;;;;;;;;;;;;;;;3.38;43.85;101662.78;5133056;28;19919;-69
2023/03/19 03:52:59;;;;;;;;;;;;;;;3.37;43.78;101671.63;5132829;28;19912;-68
2023/03/19 03:55:25;;;;;;;;;;;;;;;3.34;43.88;101675.31;5133086;28;19923;-68
2023/03/19 03:57:50;;;;;;;;;;;;;;;3.33;43.34;101670.97;5133161;28;19964;-68
2023/03/19 04:00:16;;;;;;;;;;;;;;;3.29;43.36;101666.84;5133023;28;19965;-69
2023/03/19 04:02:42;;;;;;;;;;;;;;;3.31;42.77;101670.22;5114634;28;19912;-68
2023/03/19 04:05:08;;;;;;;;;;;;;;;3.36;42.87;101676.06;5133053;28;20014;-69
2023/03/19 04:07:35;;;;;;;;;;;;;;;3.40;42.48;101667.03;5132659;28;20370;-69
2023/03/19 04:10:01;;;;;;;;;;;;;;;3.37;42.45;101663.75;5132740;28;19918;-69
2023/03/19 04:12:27;;;;;;;;;;;;;;;3.38;41.62;101662.78;5117452;28;19911;-69
2023/03/19 04:14:52;;;;;;;;;;;;;;;3.35;41.56;101668.25;5118429;28;19911;-68
2023/03/19 04:17:21;;;;;;;;;;;;;;;3.35;41.71;101676.16;5137268;28;19918;-70
2023/03/19 04:19:46;;;;;;;;;;;;;;;3.29;42.19;101674.75;5136586;28;19912;-69
2023/03/19 04:22:11;;;;;;;;;;;;;;;3.26;42.70;101676.72;5135280;28;19912;-69
2023/03/19 04:24:37;;;;;;;;;;;;;;;3.27;42.62;101671.38;5136297;28;19911;-71
2023/03/19 04:27:02;;;;;;;;;;;;;;;3.32;42.80;101668.44;5117690;28;19911;-68
2023/03/19 04:29:28;;;;;;;;;;;;;;;3.30;42.87;101671.19;5137579;28;19919;-68
2023/03/19 04:31:53;;;;;;;;;;;;;;;3.30;42.39;101665.91;5138462;27;19950;-70
2023/03/19 04:34:19;;;;;;;;;;;;;;;3.34;42.86;101670.03;5141169;27;20552;-70
2023/03/19 04:36:45;;;;;;;;;;;;;;;3.34;42.64;101661.28;5139507;27;20004;-69
2023/03/19 04:39:10;;;;;;;;;;;;;;;3.37;42.44;101664.59;5141232;27;19911;-67
2023/03/19 04:41:36;;;;;;;;;;;;;;;3.38;41.45;101658.38;5144576;27;19912;-70
2023/03/19 04:44:01;;;;;;;;;;;;;;;3.37;41.71;101656.69;5124859;27;19919;-69
2023/03/19 04:46:27;;;;;;;;;;;;;;;3.38;41.27;101652.25;5143106;27;19915;-69
2023/03/19 04:48:58;;;;;;;;;;;;;;;3.43;41.69;101655.44;5112576;27;19911;-70
2023/03/19 04:51:24;;;;;;;;;;;;;;;3.49;42.35;101654.25;5111202;27;19919;-68
2023/03/19 04:53:49;;;;;;;;;;;;;;;3.42;41.59;101649.34;5150238;27;20009;-71
2023/03/19 04:56:16;;;;;;;;;;;;;;;3.38;41.50;101653.09;5122484;27;20246;-67
2023/03/19 04:58:42;;;;;;;;;;;;;;;3.38;41.72;101650.47;5109869;27;19911;-70
2023/03/19 05:01:08;;;;;;;;;;;;;;;3.35;41.94;101644.56;5154715;27;19911;-70
2023/03/19 05:03:33;;;;;;;;;;;;;;;3.30;42.01;101649.25;5141653;27;19919;-69
2023/03/19 05:05:59;;;;;;;;;;;;;;;3.28;41.88;101648.50;5138763;27;19934;-70
2023/03/19 05:08:24;;;;;;;;;;;;;;;3.30;42.51;101650.13;5140479;27;19919;-69
2023/03/19 05:10:50;;;;;;;;;;;;;;;3.41;42.43;101650.28;5139972;27;19912;-68
2023/03/19 05:13:15;;;;;;;;;;;;;;;3.47;41.89;101650.84;5138067;27;19911;-68
2023/03/19 05:15:42;;;;;;;;;;;;;;;3.45;41.77;101648.31;5140662;27;19912;-67
2023/03/19 05:18:10;;;;;;;;;;;;;;;3.42;42.12;101648.50;5138659;27;19911;-69
2023/03/19 05:20:36;;;;;;;;;;;;;;;3.43;42.90;101642.28;5136452;27;20350;-67
2023/03/19 05:23:04;;;;;;;;;;;;;;;3.38;42.16;101645.22;5137225;27;20015;-68
2023/03/19 05:25:37;;;;;;;;;;;;;;;3.40;42.35;101643.31;5121426;27;19915;-74
2023/03/19 05:28:03;;;;;;;;;;;;;;;3.41;42.65;101652.91;5135371;27;19911;-71
2023/03/19 05:30:28;;;;;;;;;;;;;;;3.43;42.70;101650.19;5135206;27;19911;-68
2023/03/19 05:32:55;;;;;;;;;;;;;;;3.41;42.43;101652.91;5134674;27;19934;-69
2023/03/19 05:35:20;;;;;;;;;;;;;;;3.36;42.37;101649.72;5135848;27;19915;-67
2023/03/19 05:37:45;;;;;;;;;;;;;;;3.37;42.50;101651.41;5135112;27;19964;-69
2023/03/19 05:40:15;;;;;;;;;;;;;;;3.47;42.52;101656.09;5140893;27;19923;-69
2023/03/19 05:42:44;;;;;;;;;;;;;;;3.53;43.25;101659.22;5141540;27;19911;-71
2023/03/19 05:45:10;;;;;;;;;;;;;;;3.58;42.93;101651.03;5140346;27;19955;-72
2023/03/19 05:47:35;;;;;;;;;;;;;;;3.62;43.14;101652.53;5137946;27;20014;-71
2023/03/19 05:50:01;;;;;;;;;;;;;;;3.70;42.60;101658.16;5118843;27;20386;-72
2023/03/19 05:52:26;;;;;;;;;;;;;;;3.68;43.02;101644.25;5138028;27;20363;-70
2023/03/19 05:54:52;;;;;;;;;;;;;;;3.72;42.46;101648.38;5136605;27;20006;-74
2023/03/19 05:57:17;;;;;;;;;;;;;;;3.77;43.01;101648.09;5134842;27;20358;-74
2023/03/19 05:59:42;;;;;;;;;;;;;;;3.85;42.02;101651.94;5134587;27;20312;-69
2023/03/19 06:02:08;;;;;;;;;;;;;;;3.94;42.00;101659.25;5117488;27;19918;-69
2023/03/19 06:04:33;;;;;;;;;;;;;;;4.03;42.35;101648.09;5114030;28;19926;-70
2023/03/19 06:06:58;;;;;;;;;;;;;;;4.10;42.10;101650.38;5114419;28;20049;-69
2023/03/19 06:09:24;;;;;;;;;;;;;;;4.13;42.00;101650.16;5114165;28;19915;-69
2023/03/19 06:11:49;;;;;;;;;;;;;;;4.10;42.11;101645.09;5118797;28;19995;-69
2023/03/19 06:14:18;;;;;;;;;;;;;;;4.08;41.76;101647.00;5123611;28;19922;-69
2023/03/19 06:16:43;;;;;;;;;;;;;;;4.04;41.85;101657.69;5120364;28;19979;-74
2023/03/19 06:19:08;;;;;;;;;;;;;;;4.00;42.73;101661.47;5098625;28;19951;-71
2023/03/19 06:21:34;;;;;;;;;;;;;;;4.00;42.49;101658.84;5114118;28;19911;-74
2023/03/19 06:23:59;;;;;;;;;;;;;;;3.99;43.09;101658.94;5113706;28;19912;-69
2023/03/19 06:27:01;;;;;;;;;;;;;;;3.99;43.52;101661.59;5119465;28;19915;-72
2023/03/19 06:29:30;;;;;;;;;;;;;;;4.02;43.88;101661.38;5076419;28;19912;-71
2023/03/19 06:32:24;;;;;;;;;;;;;;;4.03;43.59;101666.56;5117443;28;19986;-77
2023/03/19 06:34:50;;;;;;;;;;;;;;;4.01;42.80;101662.31;5085766;28;19920;-73
2023/03/19 06:37:31;;;;;;;;;;;;;;;3.97;43.73;101661.69;5129424;28;20002;-78
2023/03/19 06:40:00;;;;;;;;;;;;;;;3.98;43.61;101670.44;5124910;28;19912;-78
2023/03/19 06:42:25;;;;;;;;;;;;;;;3.99;44.10;101659.78;5112202;28;19912;-71
2023/03/19 06:44:51;;;;;;;;;;;;;;;4.09;43.78;101670.63;5128501;28;19943;-73
2023/03/19 06:47:25;;;;;;;;;;;;;;;4.12;43.35;101667.78;5119991;28;20015;-74
2023/03/19 06:49:50;;;;;;;;;;;;;;;4.14;43.43;101660.59;5116743;28;20010;-70
2023/03/19 06:52:15;;;;;;;;;;;;;;;4.08;43.89;101668.91;5115977;27;20403;-67
2023/03/19 06:54:40;;;;;;;;;;;;;;;4.10;44.21;101660.91;5122586;27;19922;-73
2023/03/19 06:57:06;;;;;;;;;;;;;;;4.17;43.75;101664.84;5126690;27;19911;-68
2023/03/19 06:59:31;;;;;;;;;;;;;;;4.18;43.67;101664.72;5107384;27;20359;-67
2023/03/19 07:01:56;;;;;;;;;;;;;;;4.16;44.07;101665.78;5130119;27;19911;-67
2023/03/19 07:04:22;;;;;;;;;;;;;;;4.22;44.05;101671.50;5122962;27;19911;-68
2023/03/19 07:06:48;;;;;;;;;;;;;;;4.37;44.03;101666.19;5123135;27;20405;-67
2023/03/19 07:09:13;;;;;;;;;;;;;;;4.39;44.41;101667.78;5126160;27;19974;-66
2023/03/19 07:11:38;;;;;;;;;;;;;;;4.33;43.80;101662.88;5126010;27;20009;-69
2023/03/19 07:14:04;;;;;;;;;;;;;;;4.31;43.47;101670.03;5125387;27;19918;-66
2023/03/19 07:16:41;;;;;;;;;;;;;;;4.30;43.57;101663.06;5125811;27;20320;-68
2023/03/19 07:19:09;;;;;;;;;;;;;;;4.33;43.52;101668.16;5107505;28;19985;-71
2023/03/19 07:21:35;;;;;;;;;;;;;;;4.46;43.92;101657.66;5129190;28;19918;-68
2023/03/19 07:24:00;;;;;;;;;;;;;;;4.54;44.51;101660.63;5129336;27;19911;-68
2023/03/19 07:26:26;;;;;;;;;;;;;;;4.51;43.65;101661.66;5111155;28;19918;-69
2023/03/19 07:28:52;;;;;;;;;;;;;;;4.44;44.52;101657.75;5131655;28;20243;-67
2023/03/19 07:31:23;;;;;;;;;;;;;;;4.39;44.70;101662.50;5121658;28;19937;-69
2023/03/19 07:33:49;;;;;;;;;;;;;;;4.52;44.05;101662.53;5115030;28;20363;-69
2023/03/19 07:36:15;;;;;;;;;;;;;;;4.58;43.99;101656.81;5108052;28;19915;-64
2023/03/19 07:38:43;;;;;;;;;;;;;;;4.66;44.44;101660.66;5121658;28;19923;-66
2023/03/19 07:41:09;;;;;;;;;;;;;;;4.70;44.59;101660.47;5095632;28;19912;-65
2023/03/19 07:43:35;;;;;;;;;;;;;;;4.71;44.33;101667.44;5105045;28;20367;-72
2023/03/19 07:46:00;;;;;;;;;;;;;;;4.75;44.42;101659.19;5111491;28;19919;-67
2023/03/19 07:48:26;;;;;;;;;;;;;;;4.91;44.47;101664.28;5129700;28;20001;-68
2023/03/19 07:50:52;;;;;;;;;;;;;;;5.02;44.12;101658.28;5124234;28;19999;-68
2023/03/19 07:53:21;;;;;;;;;;;;;;;5.08;43.50;101660.50;5114037;28;19911;-69
2023/03/19 07:55:47;;;;;;;;;;;;;;;5.12;43.77;101661.97;5113796;28;19918;-66
2023/03/19 07:58:12;;;;;;;;;;;;;;;5.29;43.42;101661.66;5126559;28;20014;-68
2023/03/19 08:00:39;;;;;;;;;;;;;;;5.33;44.08;101657.00;5108636;28;19912;-67
2023/03/19 08:03:04;;;;;;;;;;;;;;;5.38;43.02;101657.53;5113123;28;19926;-65
2023/03/19 08:05:33;;;;;;;;;;;;;;;5.41;42.95;101647.59;5112068;28;19979;-66
2023/03/19 08:08:00;;;;;;;;;;;;;;;5.55;43.31;101654.56;5112335;27;20390;-68
2023/03/19 08:10:26;;;;;;;;;;;;;;;5.66;42.94;101661.72;5131074;27;20327;-70
2023/03/19 08:12:52;;;;;;;;;;;;;;;5.63;43.60;101656.66;5139104;27;20427;-68
2023/03/19 08:15:20;;;;;;;;;;;;;;;5.77;43.90;101649.41;5127977;27;19915;-66
2023/03/19 08:17:46;;;;;;;;;;;;;;;5.83;43.34;101651.63;5131620;27;19912;-65
2023/03/19 08:20:13;;;;;;;;;;;;;;;5.88;42.88;101646.84;5131061;27;19912;-72
2023/03/19 08:22:39;;;;;;;;;;;;;;;5.96;42.85;101653.41;5139222;27;19912;-71
2023/03/19 08:25:08;;;;;;;;;;;;;;;5.93;43.17;101651.00;5112759;27;19957;-67
2023/03/19 08:27:36;;;;;;;;;;;;;;;5.71;43.53;101647.22;5127425;27;19911;-68
2023/03/19 08:30:17;;;;;;;;;;;;;;;5.58;44.18;101652.53;5105984;27;19911;-78
2023/03/19 08:32:44;;;;;;;;;;;;;;;5.54;43.43;101642.28;5125813;27;20060;-67
2023/03/19 08:35:10;;;;;;;;;;;;;;;5.65;44.15;101652.94;5131173;27;19916;-66
2023/03/19 08:37:35;;;;;;;;;;;;;;;5.68;42.73;101654.53;5127978;27;19915;-71
2023/03/19 08:40:01;;;;;;;;;;;;;;;5.68;43.48;101647.44;5128866;27;19918;-70
2023/03/19 08:42:27;;;;;;;;;;;;;;;5.77;44.06;101644.13;5117769;27;20321;-69
2023/03/19 08:44:55;;;;;;;;;;;;;;;5.88;43.86;101640.72;5121566;28;19924;-70
2023/03/19 08:47:23;;;;;;;;;;;;;;;5.96;43.82;101648.13;5118766;28;19918;-69
2023/03/19 08:49:49;;;;;;;;;;;;;;;6.03;43.93;101647.56;5103978;28;19912;-66
2023/03/19 08:52:14;;;;;;;;;;;;;;;5.93;43.27;101643.06;5123278;28;20371;-67
2023/03/19 08:54:40;;;;;;;;;;;;;;;5.97;43.35;101644.53;5121140;28;19912;-69
2023/03/19 08:57:05;;;;;;;;;;;;;;;6.09;43.47;101639.22;5104260;28;20377;-75
2023/03/19 08:59:31;;;;;;;;;;;;;;;6.12;43.87;101640.78;5100563;28;19911;-74
2023/03/19 09:01:56;;;;;;;;;;;;;;;6.14;43.09;101642.34;5116936;28;19916;-70
2023/03/19 09:04:22;;;;;;;;;;;;;;;6.14;43.79;101642.34;5119778;28;19912;-70
2023/03/19 09:06:50;;;;;;;;;;;;;;;6.13;43.73;101639.81;5120487;28;19951;-72
2023/03/19 09:09:19;;;;;;;;;;;;;;;6.18;44.03;101635.03;5118942;28;20339;-70
2023/03/19 09:11:47;;;;;;;;;;;;;;;6.31;43.58;101635.81;5121071;28;20358;-71
2023/03/19 09:14:12;;;;;;;;;;;;;;;6.44;43.93;101636.59;5085869;28;19919;-74
2023/03/19 09:16:41;;;;;;;;;;;;;;;6.44;42.78;101631.31;5119866;28;20377;-69
2023/03/19 09:19:08;;;;;;;;;;;;;;;6.43;44.09;101640.19;5119076;28;20370;-70
2023/03/19 09:21:36;;;;;;;;;;;;;;;6.49;43.34;101637.09;5087292;28;19912;-71
2023/03/19 09:24:02;;;;;;;;;;;;;;;6.62;43.67;101631.69;5122930;28;19912;-72
2023/03/19 09:26:27;;;;;;;;;;;;;;;6.83;43.93;101634.53;5118326;28;19918;-70
2023/03/19 09:28:53;;;;;;;;;;;;;;;6.97;43.60;101630.84;5123059;28;19919;-69
2023/03/19 09:31:18;;;;;;;;;;;;;;;6.95;43.00;101636.25;5101120;28;19930;-69
2023/03/19 09:33:45;;;;;;;;;;;;;;;6.89;42.56;101627.91;5119896;28;19916;-69
2023/03/19 09:36:10;;;;;;;;;;;;;;;6.96;43.05;101635.31;5118010;28;20048;-68
2023/03/19 09:38:36;;;;;;;;;;;;;;;7.04;43.12;101624.94;5117508;28;19961;-69
2023/03/19 09:41:09;;;;;;;;;;;;;;;7.07;43.13;101627.34;5116579;28;19912;-69
2023/03/19 09:43:39;;;;;;;;;;;;;;;7.13;42.32;101628.69;5119358;28;19911;-69
2023/03/19 09:46:09;;;;;;;;;;;;;;;7.14;43.24;101633.84;5119311;28;19965;-70
2023/03/19 09:48:39;;;;;;;;;;;;;;;7.14;43.72;101631.22;5118128;28;19912;-70
2023/03/19 09:51:07;;;;;;;;;;;;;;;7.32;42.89;101620.16;5119917;28;19973;-72
2023/03/19 09:53:55;;;;;;;;;;;;;;;7.43;43.00;101618.31;5123521;28;19913;-73
2023/03/19 09:56:21;;;;;;;;;;;;;;;7.48;43.07;101625.91;5118276;28;19912;-70
2023/03/19 09:58:46;;;;;;;;;;;;;;;7.43;43.21;101622.78;5118445;28;20367;-72
2023/03/19 10:01:22;;;;;;;;;;;;;;;7.46;43.03;101630.50;5099429;28;19912;-71
2023/03/19 10:04:20;;;;;;;;;;;;;;;7.57;42.71;101629.66;5115998;28;19912;-72
2023/03/19 10:06:49;;;;;;;;;;;;;;;7.53;43.16;101634.38;5054957;28;19980;-70
2023/03/19 10:09:23;;;;;;;;;;;;;;;7.45;42.69;101637.59;5117906;28;20001;-74
2023/03/19 10:11:55;;;;;;;;;;;;;;;7.43;42.83;101633.38;5114716;28;20367;-72
2023/03/19 10:14:39;;;;;;;;;;;;;;;7.37;43.18;101640.00;5101823;28;19918;-69
2023/03/19 10:17:06;;;;;;;;;;;;;;;7.44;43.45;101632.41;5114914;28;19912;-71
2023/03/19 10:19:55;;;;;;;;;;;;;;;7.46;43.87;101635.78;5115594;28;19959;-70
2023/03/19 10:22:23;;;;;;;;;;;;;;;7.61;43.95;101637.25;5103012;28;19912;-70
2023/03/19 10:24:51;;;;;;;;;;;;;;;7.65;43.60;101627.22;5114754;28;19912;-70
2023/03/19 10:27:18;;;;;;;;;;;;;;;7.62;43.05;101632.78;5115313;28;20374;-72
2023/03/19 10:29:43;;;;;;;;;;;;;;;7.60;43.45;101627.59;5118158;28;20016;-70
2023/03/19 10:32:12;;;;;;;;;;;;;;;7.49;43.57;101630.25;5115668;28;19912;-70
2023/03/19 10:34:41;;;;;;;;;;;;;;;7.49;43.83;101632.06;5116347;28;19923;-70
2023/03/19 10:37:19;;;;;;;;;;;;;;;7.55;44.17;101637.72;5116146;28;19916;-71
2023/03/19 10:39:45;;;;;;;;;;;;;;;7.58;43.78;101632.19;5079889;28;19912;-69
2023/03/19 10:42:26;;;;;;;;;;;;;;;7.64;43.58;101634.34;5114396;28;19912;-69
2023/03/19 10:44:55;;;;;;;;;;;;;;;7.68;43.49;101630.47;5115663;28;19912;-70
2023/03/19 10:47:24;;;;;;;;;;;;;;;7.72;44.82;101633.72;5115483;28;19919;-70
2023/03/19 10:49:50;;;;;;;;;;;;;;;7.64;43.60;101644.94;5081791;28;19919;-70
2023/03/19 10:52:35;;;;;;;;;;;;;;;7.54;44.93;101636.06;5115227;28;19915;-69
2023/03/19 10:55:02;;;;;;;;;;;;;;;7.35;45.71;101625.19;5115361;28;19919;-69
2023/03/19 10:57:30;;;;;;;;;;;;;;;7.23;46.53;101623.50;5120102;28;19919;-68
2023/03/19 11:00:00;;;;;;;;;;;;;;;7.17;46.39;101626.63;5118849;28;19916;-69
2023/03/19 11:02:30;;;;;;;;;;;;;;;7.14;46.71;101623.25;5096474;28;19924;-70
2023/03/19 11:05:25;;;;;;;;;;;;;;;7.09;47.71;101622.78;5119703;28;20402;-70
2023/03/19 11:07:55;;;;;;;;;;;;;;;7.09;46.59;101622.78;5115856;28;19943;-69
2023/03/19 11:10:21;;;;;;;;;;;;;;;7.15;47.19;101624.94;5117430;28;19918;-70
2023/03/19 11:12:50;;;;;;;;;;;;;;;7.11;47.55;101615.56;5117714;28;19916;-67
2023/03/19 11:15:20;;;;;;;;;;;;;;;7.15;47.66;101610.84;5116553;28;20015;-68
2023/03/19 11:17:48;;;;;;;;;;;;;;;7.34;47.30;101616.41;5099849;28;19951;-69
2023/03/19 11:20:22;;;;;;;;;;;;;;;7.58;46.11;101610.97;5097999;28;19935;-67
2023/03/19 11:22:49;;;;;;;;;;;;;;;7.61;45.69;101612.53;5115011;28;19931;-70
2023/03/19 11:25:22;;;;;;;;;;;;;;;7.45;46.08;101610.25;5114117;28;19969;-73
2023/03/19 11:28:16;;;;;;;;;;;;;;;7.36;46.12;101618.94;5119452;28;19911;-72
2023/03/19 11:30:55;;;;;;;;;;;;;;;7.31;46.42;101608.72;5084801;28;19912;-69
2023/03/19 11:33:20;;;;;;;;;;;;;;;7.31;45.60;101608.72;5118413;28;19930;-72
2023/03/19 11:36:01;;;;;;;;;;;;;;;7.35;46.43;101609.31;5127474;28;19958;-70
2023/03/19 11:38:50;;;;;;;;;;;;;;;7.43;46.21;101605.06;5102928;28;20014;-70
2023/03/19 11:41:22;;;;;;;;;;;;;;;7.55;45.72;101605.09;5051234;28;19916;-68
2023/03/19 11:43:48;;;;;;;;;;;;;;;7.57;45.41;101593.38;5119209;28;19919;-70
2023/03/19 11:46:22;;;;;;;;;;;;;;;7.58;45.59;101610.13;5105965;28;19912;-77
2023/03/19 11:49:01;;;;;;;;;;;;;;;7.51;46.40;101612.41;5120896;28;19918;-71
2023/03/19 11:51:46;;;;;;;;;;;;;;;7.46;45.74;101598.69;5117104;28;19981;-73
2023/03/19 11:54:29;;;;;;;;;;;;;;;7.26;46.12;101610.88;5119875;28;19912;-74
2023/03/19 11:57:01;;;;;;;;;;;;;;;7.17;46.54;101602.78;5117065;28;20332;-74
2023/03/19 11:59:29;;;;;;;;;;;;;;;7.20;46.62;101606.03;5120595;28;19915;-74
2023/03/19 12:02:12;;;;;;;;;;;;;;;7.30;47.37;101600.88;5121442;28;19982;-72
2023/03/19 12:04:38;;;;;;;;;;;;;;;7.39;47.32;101605.44;5100224;28;20271;-70
2023/03/19 12:07:03;;;;;;;;;;;;;;;7.49;47.44;101602.91;5116934;28;19916;-69
2023/03/19 12:09:36;;;;;;;;;;;;;;;7.46;46.52;101606.63;5116327;28;19918;-68
2023/03/19 12:12:23;;;;;;;;;;;;;;;7.32;46.29;101604.25;5116592;28;20359;-69
2023/03/19 12:14:56;;;;;;;;;;;;;;;7.23;46.90;101599.66;5116708;28;19932;-70
2023/03/19 12:17:32;;;;;;;;;;;;;;;7.19;46.80;101596.41;5098027;28;19926;-72
2023/03/19 12:20:04;;;;;;;;;;;;;;;7.09;47.45;101606.03;5116388;28;19965;-73
2023/03/19 12:22:39;;;;;;;;;;;;;;;7.05;47.49;101596.66;5116506;28;19935;-71
2023/03/19 12:25:24;;;;;;;;;;;;;;;7.14;47.66;101591.47;5116159;28;19912;-67
2023/03/19 12:27:55;;;;;;;;;;;;;;;7.12;47.70;101585.44;5116324;28;19965;-69
2023/03/19 12:30:25;;;;;;;;;;;;;;;7.07;48.01;101590.28;5116031;28;19965;-70
2023/03/19 12:33:18;;;;;;;;;;;;;;;7.11;48.74;101582.94;5119432;28;20014;-74
2023/03/19 12:35:46;;;;;;;;;;;;;;;7.12;48.37;101581.97;5089181;28;19960;-69
2023/03/19 12:38:22;;;;;;;;;;;;;;;7.15;49.23;101585.22;5119790;28;19958;-72
2023/03/19 12:40:52;;;;;;;;;;;;;;;7.11;48.02;101581.13;5118067;28;19954;-71
2023/03/19 12:43:22;;;;;;;;;;;;;;;7.00;49.42;101575.84;5123109;28;20374;-71
2023/03/19 12:45:51;;;;;;;;;;;;;;;6.89;49.77;101572.31;5121851;28;19911;-69
2023/03/19 12:48:40;;;;;;;;;;;;;;;6.86;49.17;101581.34;5106046;28;19912;-70
2023/03/19 12:51:10;;;;;;;;;;;;;;;6.79;49.30;101574.84;5123591;28;19912;-77
2023/03/19 12:53:45;;;;;;;;;;;;;;;6.81;49.64;101576.41;5103093;28;20007;-70